sensor_id;sensor_type;location;lat;lon;timestamp;temperature;humidity
52656;SHT85;35474;51.032;6.998;2024-02-21T00:02:23;9.89;76.61
52656;SHT85;35474;51.032;6.998;2024-02-21T00:04:50;9.93;76.70
52656;SHT85;35474;51.032;6.998;2024-02-21T00:07:17;9.89;76.65
52656;SHT85;35474;51.032;6.998;2024-02-21T00:09:43;9.90;76.76
52656;SHT85;35474;51.032;6.998;2024-02-21T00:12:10;9.86;76.76
52656;SHT85;35474;51.032;6.998;2024-02-21T00:14:37;9.86;77.04
52656;SHT85;35474;51.032;6.998;2024-02-21T00:17:03;9.84;76.91
52656;SHT85;35474;51.032;6.998;2024-02-21T00:19:32;9.87;77.00
52656;SHT85;35474;51.032;6.998;2024-02-21T00:21:58;9.89;77.27
52656;SHT85;35474;51.032;6.998;2024-02-21T00:24:25;9.86;77.22
52656;SHT85;35474;51.032;6.998;2024-02-21T00:26:53;9.86;77.19
52656;SHT85;35474;51.032;6.998;2024-02-21T00:29:20;9.87;77.19
52656;SHT85;35474;51.032;6.998;2024-02-21T00:31:47;9.87;77.28
52656;SHT85;35474;51.032;6.998;2024-02-21T00:34:15;9.90;77.34
52656;SHT85;35474;51.032;6.998;2024-02-21T00:36:42;9.84;77.49
52656;SHT85;35474;51.032;6.998;2024-02-21T00:39:08;9.84;77.53
52656;SHT85;35474;51.032;6.998;2024-02-21T00:41:35;9.84;77.72
52656;SHT85;35474;51.032;6.998;2024-02-21T00:44:01;9.80;77.93
52656;SHT85;35474;51.032;6.998;2024-02-21T00:46:28;9.77;78.02
52656;SHT85;35474;51.032;6.998;2024-02-21T00:48:54;9.77;78.11
52656;SHT85;35474;51.032;6.998;2024-02-21T00:51:21;9.76;78.17
52656;SHT85;35474;51.032;6.998;2024-02-21T00:53:47;9.74;78.32
52656;SHT85;35474;51.032;6.998;2024-02-21T00:56:14;9.80;78.17
52656;SHT85;35474;51.032;6.998;2024-02-21T01:00:34;9.76;78.52
52656;SHT85;35474;51.032;6.998;2024-02-21T01:03:01;9.77;78.35
52656;SHT85;35474;51.032;6.998;2024-02-21T01:05:28;9.77;78.38
52656;SHT85;35474;51.032;6.998;2024-02-21T01:07:55;9.77;78.55
52656;SHT85;35474;51.032;6.998;2024-02-21T01:10:21;9.77;78.70
52656;SHT85;35474;51.032;6.998;2024-02-21T01:12:49;9.77;78.79
52656;SHT85;35474;51.032;6.998;2024-02-21T01:15:15;9.77;78.43
52656;SHT85;35474;51.032;6.998;2024-02-21T01:17:42;9.80;78.59
52656;SHT85;35474;51.032;6.998;2024-02-21T01:20:09;9.80;78.59
52656;SHT85;35474;51.032;6.998;2024-02-21T01:22:36;9.80;78.55
52656;SHT85;35474;51.032;6.998;2024-02-21T01:25:02;9.77;78.72
52656;SHT85;35474;51.032;6.998;2024-02-21T01:27:29;9.76;78.76
52656;SHT85;35474;51.032;6.998;2024-02-21T01:29:55;9.79;78.58
52656;SHT85;35474;51.032;6.998;2024-02-21T01:32:22;9.84;78.61
52656;SHT85;35474;51.032;6.998;2024-02-21T01:34:51;9.81;78.56
52656;SHT85;35474;51.032;6.998;2024-02-21T01:37:18;9.80;78.61
52656;SHT85;35474;51.032;6.998;2024-02-21T01:39:44;9.79;78.54
52656;SHT85;35474;51.032;6.998;2024-02-21T01:42:11;9.79;78.67
52656;SHT85;35474;51.032;6.998;2024-02-21T01:44:37;9.76;78.56
52656;SHT85;35474;51.032;6.998;2024-02-21T01:47:04;9.77;78.54
52656;SHT85;35474;51.032;6.998;2024-02-21T01:49:31;9.77;78.72
52656;SHT85;35474;51.032;6.998;2024-02-21T01:51:58;9.80;78.90
52656;SHT85;35474;51.032;6.998;2024-02-21T01:54:25;9.81;78.61
52656;SHT85;35474;51.032;6.998;2024-02-21T01:56:54;9.77;78.69
52656;SHT85;35474;51.032;6.998;2024-02-21T01:59:21;9.79;78.75
52656;SHT85;35474;51.032;6.998;2024-02-21T02:01:48;9.81;78.64
52656;SHT85;35474;51.032;6.998;2024-02-21T02:04:16;9.74;79.15
52656;SHT85;35474;51.032;6.998;2024-02-21T02:06:43;9.80;79.06
52656;SHT85;35474;51.032;6.998;2024-02-21T02:09:10;9.77;78.75
52656;SHT85;35474;51.032;6.998;2024-02-21T02:11:36;9.79;78.87
52656;SHT85;35474;51.032;6.998;2024-02-21T02:14:03;9.77;78.97
52656;SHT85;35474;51.032;6.998;2024-02-21T02:16:29;9.73;78.78
52656;SHT85;35474;51.032;6.998;2024-02-21T02:18:56;9.77;78.93
52656;SHT85;35474;51.032;6.998;2024-02-21T02:21:25;9.76;78.81
52656;SHT85;35474;51.032;6.998;2024-02-21T02:23:56;9.79;79.13
52656;SHT85;35474;51.032;6.998;2024-02-21T02:26:22;9.79;78.82
52656;SHT85;35474;51.032;6.998;2024-02-21T02:28:49;9.76;79.03
52656;SHT85;35474;51.032;6.998;2024-02-21T02:31:16;9.77;78.92
52656;SHT85;35474;51.032;6.998;2024-02-21T02:33:43;9.74;78.60
52656;SHT85;35474;51.032;6.998;2024-02-21T02:36:10;9.71;78.66
52656;SHT85;35474;51.032;6.998;2024-02-21T02:38:37;9.76;78.82
52656;SHT85;35474;51.032;6.998;2024-02-21T02:41:03;9.76;79.04
52656;SHT85;35474;51.032;6.998;2024-02-21T02:43:30;9.79;78.90
52656;SHT85;35474;51.032;6.998;2024-02-21T02:45:57;9.74;78.88
52656;SHT85;35474;51.032;6.998;2024-02-21T02:48:24;9.76;78.76
52656;SHT85;35474;51.032;6.998;2024-02-21T02:50:51;9.77;78.67
52656;SHT85;35474;51.032;6.998;2024-02-21T02:53:17;9.79;78.79
52656;SHT85;35474;51.032;6.998;2024-02-21T02:55:44;9.73;78.38
52656;SHT85;35474;51.032;6.998;2024-02-21T02:58:11;9.74;78.59
52656;SHT85;35474;51.032;6.998;2024-02-21T03:00:38;9.69;78.97
52656;SHT85;35474;51.032;6.998;2024-02-21T03:03:05;9.71;78.80
52656;SHT85;35474;51.032;6.998;2024-02-21T03:05:32;9.62;78.90
52656;SHT85;35474;51.032;6.998;2024-02-21T03:07:59;9.56;78.96
52656;SHT85;35474;51.032;6.998;2024-02-21T03:10:25;9.57;78.89
52656;SHT85;35474;51.032;6.998;2024-02-21T03:12:52;9.60;79.04
52656;SHT85;35474;51.032;6.998;2024-02-21T03:15:19;9.60;78.94
52656;SHT85;35474;51.032;6.998;2024-02-21T03:17:46;9.53;79.10
52656;SHT85;35474;51.032;6.998;2024-02-21T03:20:12;9.53;79.07
52656;SHT85;35474;51.032;6.998;2024-02-21T03:22:40;9.54;79.08
52656;SHT85;35474;51.032;6.998;2024-02-21T03:25:08;9.49;79.27
52656;SHT85;35474;51.032;6.998;2024-02-21T03:27:35;9.50;79.45
52656;SHT85;35474;51.032;6.998;2024-02-21T03:30:01;9.39;79.95
52656;SHT85;35474;51.032;6.998;2024-02-21T03:32:30;9.33;80.22
52656;SHT85;35474;51.032;6.998;2024-02-21T03:34:57;9.32;80.29
52656;SHT85;35474;51.032;6.998;2024-02-21T03:37:24;9.23;80.55
52656;SHT85;35474;51.032;6.998;2024-02-21T03:39:50;9.21;80.46
52656;SHT85;35474;51.032;6.998;2024-02-21T03:42:17;9.16;80.68
52656;SHT85;35474;51.032;6.998;2024-02-21T03:44:43;9.10;80.80
52656;SHT85;35474;51.032;6.998;2024-02-21T03:47:10;9.12;80.90
52656;SHT85;35474;51.032;6.998;2024-02-21T03:49:38;9.02;81.15
52656;SHT85;35474;51.032;6.998;2024-02-21T03:52:05;9.01;81.26
52656;SHT85;35474;51.032;6.998;2024-02-21T03:54:31;9.08;81.09
52656;SHT85;35474;51.032;6.998;2024-02-21T03:56:58;9.15;80.92
52656;SHT85;35474;51.032;6.998;2024-02-21T03:59:24;9.21;80.54
52656;SHT85;35474;51.032;6.998;2024-02-21T04:01:51;9.23;80.04
52656;SHT85;35474;51.032;6.998;2024-02-21T04:04:19;9.25;79.95
52656;SHT85;35474;51.032;6.998;2024-02-21T04:06:49;9.31;79.62
52656;SHT85;35474;51.032;6.998;2024-02-21T04:09:16;9.36;79.17
52656;SHT85;35474;51.032;6.998;2024-02-21T04:11:43;9.38;79.04
52656;SHT85;35474;51.032;6.998;2024-02-21T04:14:10;9.29;79.38
52656;SHT85;35474;51.032;6.998;2024-02-21T04:16:40;9.32;79.58
52656;SHT85;35474;51.032;6.998;2024-02-21T04:19:06;9.28;79.64
52656;SHT85;35474;51.032;6.998;2024-02-21T04:21:34;9.35;79.44
52656;SHT85;35474;51.032;6.998;2024-02-21T04:24:01;9.42;79.19
52656;SHT85;35474;51.032;6.998;2024-02-21T04:26:29;9.38;79.34
52656;SHT85;35474;51.032;6.998;2024-02-21T04:28:56;9.31;79.60
52656;SHT85;35474;51.032;6.998;2024-02-21T04:31:22;9.29;79.57
52656;SHT85;35474;51.032;6.998;2024-02-21T04:33:49;9.26;80.16
52656;SHT85;35474;51.032;6.998;2024-02-21T04:36:16;9.22;80.14
52656;SHT85;35474;51.032;6.998;2024-02-21T04:38:42;9.21;80.22
52656;SHT85;35474;51.032;6.998;2024-02-21T04:41:09;9.29;80.13
52656;SHT85;35474;51.032;6.998;2024-02-21T04:43:35;9.18;80.25
52656;SHT85;35474;51.032;6.998;2024-02-21T04:46:02;9.14;80.60
52656;SHT85;35474;51.032;6.998;2024-02-21T04:48:29;9.19;80.55
52656;SHT85;35474;51.032;6.998;2024-02-21T04:50:55;9.18;80.41
52656;SHT85;35474;51.032;6.998;2024-02-21T04:53:22;9.18;80.40
52656;SHT85;35474;51.032;6.998;2024-02-21T04:55:48;9.18;80.42
52656;SHT85;35474;51.032;6.998;2024-02-21T04:58:16;9.31;80.21
52656;SHT85;35474;51.032;6.998;2024-02-21T05:00:42;9.19;80.53
52656;SHT85;35474;51.032;6.998;2024-02-21T05:03:09;9.33;80.14
52656;SHT85;35474;51.032;6.998;2024-02-21T05:05:36;9.18;80.57
52656;SHT85;35474;51.032;6.998;2024-02-21T05:08:02;9.05;80.85
52656;SHT85;35474;51.032;6.998;2024-02-21T05:10:30;9.01;81.10
52656;SHT85;35474;51.032;6.998;2024-02-21T05:12:57;9.04;81.01
52656;SHT85;35474;51.032;6.998;2024-02-21T05:15:23;9.02;81.10
52656;SHT85;35474;51.032;6.998;2024-02-21T05:17:50;8.98;81.20
52656;SHT85;35474;51.032;6.998;2024-02-21T05:20:16;8.97;81.20
52656;SHT85;35474;51.032;6.998;2024-02-21T05:22:43;8.97;81.21
52656;SHT85;35474;51.032;6.998;2024-02-21T05:25:10;8.97;81.17
52656;SHT85;35474;51.032;6.998;2024-02-21T05:27:36;8.97;81.14
52656;SHT85;35474;51.032;6.998;2024-02-21T05:30:05;8.89;81.27
52656;SHT85;35474;51.032;6.998;2024-02-21T05:32:33;8.98;81.17
52656;SHT85;35474;51.032;6.998;2024-02-21T05:34:59;9.01;81.18
52656;SHT85;35474;51.032;6.998;2024-02-21T05:37:26;8.94;81.22
52656;SHT85;35474;51.032;6.998;2024-02-21T05:39:53;9.01;80.93
52656;SHT85;35474;51.032;6.998;2024-02-21T05:42:19;8.98;81.08
52656;SHT85;35474;51.032;6.998;2024-02-21T05:44:46;8.91;81.34
52656;SHT85;35474;51.032;6.998;2024-02-21T05:47:12;8.92;81.37
52656;SHT85;35474;51.032;6.998;2024-02-21T05:49:41;8.97;81.29
52656;SHT85;35474;51.032;6.998;2024-02-21T05:52:08;9.05;80.99
52656;SHT85;35474;51.032;6.998;2024-02-21T05:54:37;9.00;81.08
52656;SHT85;35474;51.032;6.998;2024-02-21T05:57:04;9.15;80.98
52656;SHT85;35474;51.032;6.998;2024-02-21T05:59:30;9.15;80.50
52656;SHT85;35474;51.032;6.998;2024-02-21T06:01:57;9.22;80.19
52656;SHT85;35474;51.032;6.998;2024-02-21T06:04:24;9.10;80.31
52656;SHT85;35474;51.032;6.998;2024-02-21T06:06:51;9.12;79.86
52656;SHT85;35474;51.032;6.998;2024-02-21T06:09:18;9.42;79.09
52656;SHT85;35474;51.032;6.998;2024-02-21T06:11:44;9.42;78.19
52656;SHT85;35474;51.032;6.998;2024-02-21T06:14:12;9.54;76.25
52656;SHT85;35474;51.032;6.998;2024-02-21T06:16:39;9.52;75.94
52656;SHT85;35474;51.032;6.998;2024-02-21T06:19:06;9.59;75.09
52656;SHT85;35474;51.032;6.998;2024-02-21T06:21:35;9.53;75.03
52656;SHT85;35474;51.032;6.998;2024-02-21T06:24:04;9.54;75.23
52656;SHT85;35474;51.032;6.998;2024-02-21T06:26:31;9.54;75.31
52656;SHT85;35474;51.032;6.998;2024-02-21T06:28:58;9.57;75.29
52656;SHT85;35474;51.032;6.998;2024-02-21T06:31:26;9.54;75.01
52656;SHT85;35474;51.032;6.998;2024-02-21T06:33:53;9.49;75.22
52656;SHT85;35474;51.032;6.998;2024-02-21T06:36:20;9.49;75.48
52656;SHT85;35474;51.032;6.998;2024-02-21T06:38:46;9.46;75.54
52656;SHT85;35474;51.032;6.998;2024-02-21T06:41:16;9.54;75.67
52656;SHT85;35474;51.032;6.998;2024-02-21T06:43:45;9.46;75.62
52656;SHT85;35474;51.032;6.998;2024-02-21T06:46:12;9.47;75.69
52656;SHT85;35474;51.032;6.998;2024-02-21T06:48:49;9.44;75.79
52656;SHT85;35474;51.032;6.998;2024-02-21T06:51:15;9.39;76.41
52656;SHT85;35474;51.032;6.998;2024-02-21T06:53:42;9.31;77.59
52656;SHT85;35474;51.032;6.998;2024-02-21T06:56:10;9.29;77.80
52656;SHT85;35474;51.032;6.998;2024-02-21T06:58:37;9.32;77.98
52656;SHT85;35474;51.032;6.998;2024-02-21T07:01:03;9.31;78.30
52656;SHT85;35474;51.032;6.998;2024-02-21T07:03:30;9.28;78.65
52656;SHT85;35474;51.032;6.998;2024-02-21T07:05:57;9.26;78.59
52656;SHT85;35474;51.032;6.998;2024-02-21T07:08:24;9.22;78.74
52656;SHT85;35474;51.032;6.998;2024-02-21T07:10:53;9.25;77.93
52656;SHT85;35474;51.032;6.998;2024-02-21T07:13:20;9.23;78.43
52656;SHT85;35474;51.032;6.998;2024-02-21T07:15:48;9.15;78.52
52656;SHT85;35474;51.032;6.998;2024-02-21T07:18:15;9.22;79.14
52656;SHT85;35474;51.032;6.998;2024-02-21T07:20:42;9.22;79.26
52656;SHT85;35474;51.032;6.998;2024-02-21T07:23:09;9.22;79.49
52656;SHT85;35474;51.032;6.998;2024-02-21T07:25:35;9.23;79.62
52656;SHT85;35474;51.032;6.998;2024-02-21T07:28:02;9.29;79.04
52656;SHT85;35474;51.032;6.998;2024-02-21T07:32:34;9.23;78.81
52656;SHT85;35474;51.032;6.998;2024-02-21T07:35:01;9.26;78.72
52656;SHT85;35474;51.032;6.998;2024-02-21T07:37:27;9.31;78.69
52656;SHT85;35474;51.032;6.998;2024-02-21T07:39:58;9.32;78.84
52656;SHT85;35474;51.032;6.998;2024-02-21T07:42:24;9.28;78.97
52656;SHT85;35474;51.032;6.998;2024-02-21T07:44:51;9.16;79.02
52656;SHT85;35474;51.032;6.998;2024-02-21T07:47:18;9.21;79.04
52656;SHT85;35474;51.032;6.998;2024-02-21T07:49:46;9.19;78.99
52656;SHT85;35474;51.032;6.998;2024-02-21T07:52:12;9.16;79.04
52656;SHT85;35474;51.032;6.998;2024-02-21T07:54:39;9.15;79.19
52656;SHT85;35474;51.032;6.998;2024-02-21T07:57:05;9.23;79.00
52656;SHT85;35474;51.032;6.998;2024-02-21T07:59:33;9.23;78.80
52656;SHT85;35474;51.032;6.998;2024-02-21T08:01:59;9.18;79.11
52656;SHT85;35474;51.032;6.998;2024-02-21T08:04:26;9.16;79.14
52656;SHT85;35474;51.032;6.998;2024-02-21T08:06:53;9.12;78.92
52656;SHT85;35474;51.032;6.998;2024-02-21T08:09:22;9.21;78.94
52656;SHT85;35474;51.032;6.998;2024-02-21T08:11:49;9.21;78.87
52656;SHT85;35474;51.032;6.998;2024-02-21T08:14:15;9.14;78.96
52656;SHT85;35474;51.032;6.998;2024-02-21T08:16:46;9.16;78.86
52656;SHT85;35474;51.032;6.998;2024-02-21T08:19:13;9.12;79.04
52656;SHT85;35474;51.032;6.998;2024-02-21T08:21:40;9.23;78.82
52656;SHT85;35474;51.032;6.998;2024-02-21T08:24:06;9.18;78.89
52656;SHT85;35474;51.032;6.998;2024-02-21T08:26:33;9.08;78.95
52656;SHT85;35474;51.032;6.998;2024-02-21T08:28:59;9.12;79.02
52656;SHT85;35474;51.032;6.998;2024-02-21T08:31:29;9.07;79.28
52656;SHT85;35474;51.032;6.998;2024-02-21T08:33:58;9.11;79.19
52656;SHT85;35474;51.032;6.998;2024-02-21T08:36:35;9.11;78.90
52656;SHT85;35474;51.032;6.998;2024-02-21T08:39:02;9.14;78.84
52656;SHT85;35474;51.032;6.998;2024-02-21T08:41:32;9.11;78.63
52656;SHT85;35474;51.032;6.998;2024-02-21T08:44:19;9.18;78.61
52656;SHT85;35474;51.032;6.998;2024-02-21T08:46:46;9.14;78.31
52656;SHT85;35474;51.032;6.998;2024-02-21T08:49:13;9.14;77.96
52656;SHT85;35474;51.032;6.998;2024-02-21T08:51:40;9.05;78.19
52656;SHT85;35474;51.032;6.998;2024-02-21T08:54:07;9.04;78.02
52656;SHT85;35474;51.032;6.998;2024-02-21T08:56:34;9.14;78.05
52656;SHT85;35474;51.032;6.998;2024-02-21T08:59:01;9.15;77.84
52656;SHT85;35474;51.032;6.998;2024-02-21T09:01:28;9.22;77.71
52656;SHT85;35474;51.032;6.998;2024-02-21T09:03:55;9.29;77.30
52656;SHT85;35474;51.032;6.998;2024-02-21T09:06:22;9.14;77.42
52656;SHT85;35474;51.032;6.998;2024-02-21T09:08:49;9.28;77.24
52656;SHT85;35474;51.032;6.998;2024-02-21T09:11:15;9.28;76.93
52656;SHT85;35474;51.032;6.998;2024-02-21T09:13:42;9.32;76.59
52656;SHT85;35474;51.032;6.998;2024-02-21T09:16:10;9.47;76.20
52656;SHT85;35474;51.032;6.998;2024-02-21T09:18:37;9.57;76.07
52656;SHT85;35474;51.032;6.998;2024-02-21T09:21:04;9.84;75.36
52656;SHT85;35474;51.032;6.998;2024-02-21T09:23:30;9.73;75.25
52656;SHT85;35474;51.032;6.998;2024-02-21T09:25:58;9.80;75.01
52656;SHT85;35474;51.032;6.998;2024-02-21T09:28:27;9.56;75.34
52656;SHT85;35474;51.032;6.998;2024-02-21T09:30:53;9.57;75.13
52656;SHT85;35474;51.032;6.998;2024-02-21T09:33:20;9.54;74.97
52656;SHT85;35474;51.032;6.998;2024-02-21T09:35:57;9.62;74.80
52656;SHT85;35474;51.032;6.998;2024-02-21T09:38:24;9.52;74.49
52656;SHT85;35474;51.032;6.998;2024-02-21T09:40:54;9.69;73.62
52656;SHT85;35474;51.032;6.998;2024-02-21T09:43:26;9.64;73.31
52656;SHT85;35474;51.032;6.998;2024-02-21T09:45:53;9.69;73.08
52656;SHT85;35474;51.032;6.998;2024-02-21T09:48:27;9.86;72.92
52656;SHT85;35474;51.032;6.998;2024-02-21T09:51:01;9.80;71.98
52656;SHT85;35474;51.032;6.998;2024-02-21T09:53:29;9.73;71.77
52656;SHT85;35474;51.032;6.998;2024-02-21T09:55:57;9.79;71.08
52656;SHT85;35474;51.032;6.998;2024-02-21T09:58:25;9.74;71.23
52656;SHT85;35474;51.032;6.998;2024-02-21T10:00:54;10.00;71.11
52656;SHT85;35474;51.032;6.998;2024-02-21T10:03:20;10.31;70.86
52656;SHT85;35474;51.032;6.998;2024-02-21T10:05:48;10.48;69.90
52656;SHT85;35474;51.032;6.998;2024-02-21T10:08:19;10.35;70.15
52656;SHT85;35474;51.032;6.998;2024-02-21T10:10:46;10.28;70.10
52656;SHT85;35474;51.032;6.998;2024-02-21T10:13:26;10.24;69.66
52656;SHT85;35474;51.032;6.998;2024-02-21T10:16:04;10.29;69.52
52656;SHT85;35474;51.032;6.998;2024-02-21T10:18:32;10.59;69.14
52656;SHT85;35474;51.032;6.998;2024-02-21T10:21:00;10.25;69.72
52656;SHT85;35474;51.032;6.998;2024-02-21T10:23:40;10.17;69.56
52656;SHT85;35474;51.032;6.998;2024-02-21T10:26:08;10.01;69.43
52656;SHT85;35474;51.032;6.998;2024-02-21T10:28:36;9.93;70.32
52656;SHT85;35474;51.032;6.998;2024-02-21T10:31:04;10.05;69.31
52656;SHT85;35474;51.032;6.998;2024-02-21T10:33:31;10.17;69.87
52656;SHT85;35474;51.032;6.998;2024-02-21T10:36:08;10.21;69.62
52656;SHT85;35474;51.032;6.998;2024-02-21T10:38:36;10.07;69.72
52656;SHT85;35474;51.032;6.998;2024-02-21T10:41:04;10.17;69.34
52656;SHT85;35474;51.032;6.998;2024-02-21T10:43:39;10.44;69.16
52656;SHT85;35474;51.032;6.998;2024-02-21T10:46:09;10.68;68.71
52656;SHT85;35474;51.032;6.998;2024-02-21T10:48:43;10.48;67.99
52656;SHT85;35474;51.032;6.998;2024-02-21T10:51:17;10.58;68.29
52656;SHT85;35474;51.032;6.998;2024-02-21T10:56:29;10.66;67.10
52656;SHT85;35474;51.032;6.998;2024-02-21T10:58:57;10.60;67.99
52656;SHT85;35474;51.032;6.998;2024-02-21T11:01:27;10.42;67.93
52656;SHT85;35474;51.032;6.998;2024-02-21T11:03:57;10.70;67.63
52656;SHT85;35474;51.032;6.998;2024-02-21T11:06:26;10.45;67.21
52656;SHT85;35474;51.032;6.998;2024-02-21T11:11:27;10.73;66.93
52656;SHT85;35474;51.032;6.998;2024-02-21T11:14:08;11.07;66.39
52656;SHT85;35474;51.032;6.998;2024-02-21T11:16:40;11.35;66.03
52656;SHT85;35474;51.032;6.998;2024-02-21T11:19:09;11.30;65.96
52656;SHT85;35474;51.032;6.998;2024-02-21T11:21:45;11.34;65.78
52656;SHT85;35474;51.032;6.998;2024-02-21T11:24:11;11.32;65.68
52656;SHT85;35474;51.032;6.998;2024-02-21T11:26:38;11.37;65.91
52656;SHT85;35474;51.032;6.998;2024-02-21T11:29:05;11.04;65.80
52656;SHT85;35474;51.032;6.998;2024-02-21T11:31:41;10.86;67.03
52656;SHT85;35474;51.032;6.998;2024-02-21T11:34:12;11.27;66.45
52656;SHT85;35474;51.032;6.998;2024-02-21T11:36:48;11.27;66.41
52656;SHT85;35474;51.032;6.998;2024-02-21T11:39:23;11.16;65.97
52656;SHT85;35474;51.032;6.998;2024-02-21T11:42:01;11.30;66.63
52656;SHT85;35474;51.032;6.998;2024-02-21T11:44:31;11.17;66.01
52656;SHT85;35474;51.032;6.998;2024-02-21T11:46:58;11.10;66.31
52656;SHT85;35474;51.032;6.998;2024-02-21T11:49:25;11.07;66.50
52656;SHT85;35474;51.032;6.998;2024-02-21T11:52:02;11.08;66.02
52656;SHT85;35474;51.032;6.998;2024-02-21T11:54:34;11.16;65.98
52656;SHT85;35474;51.032;6.998;2024-02-21T11:57:00;11.16;65.58
52656;SHT85;35474;51.032;6.998;2024-02-21T11:59:29;11.03;65.84
52656;SHT85;35474;51.032;6.998;2024-02-21T12:01:58;11.21;65.65
52656;SHT85;35474;51.032;6.998;2024-02-21T12:04:29;11.16;65.71
52656;SHT85;35474;51.032;6.998;2024-02-21T12:06:59;11.13;65.44
52656;SHT85;35474;51.032;6.998;2024-02-21T12:09:26;11.28;65.97
52656;SHT85;35474;51.032;6.998;2024-02-21T12:12:00;11.48;65.37
52656;SHT85;35474;51.032;6.998;2024-02-21T12:14:28;11.34;65.73
52656;SHT85;35474;51.032;6.998;2024-02-21T12:16:59;11.20;65.44
52656;SHT85;35474;51.032;6.998;2024-02-21T12:19:30;11.23;65.66
52656;SHT85;35474;51.032;6.998;2024-02-21T12:21:58;11.27;65.72
52656;SHT85;35474;51.032;6.998;2024-02-21T12:24:26;11.28;65.71
52656;SHT85;35474;51.032;6.998;2024-02-21T12:26:54;11.18;65.72
52656;SHT85;35474;51.032;6.998;2024-02-21T12:29:21;11.01;66.01
52656;SHT85;35474;51.032;6.998;2024-02-21T12:31:49;11.03;66.03
52656;SHT85;35474;51.032;6.998;2024-02-21T12:34:16;11.30;66.30
52656;SHT85;35474;51.032;6.998;2024-02-21T12:36:56;11.47;65.66
52656;SHT85;35474;51.032;6.998;2024-02-21T12:39:22;11.54;65.30
52656;SHT85;35474;51.032;6.998;2024-02-21T12:41:49;11.47;64.97
52656;SHT85;35474;51.032;6.998;2024-02-21T12:44:16;11.47;64.79
52656;SHT85;35474;51.032;6.998;2024-02-21T12:46:44;11.49;64.96
52656;SHT85;35474;51.032;6.998;2024-02-21T12:49:11;11.66;64.82
52656;SHT85;35474;51.032;6.998;2024-02-21T12:51:37;11.78;64.76
52656;SHT85;35474;51.032;6.998;2024-02-21T12:54:06;11.58;64.80
52656;SHT85;35474;51.032;6.998;2024-02-21T12:56:32;11.66;64.60
52656;SHT85;35474;51.032;6.998;2024-02-21T12:58:59;11.63;64.72
52656;SHT85;35474;51.032;6.998;2024-02-21T13:01:26;11.88;64.25
52656;SHT85;35474;51.032;6.998;2024-02-21T13:03:53;11.89;63.73
52656;SHT85;35474;51.032;6.998;2024-02-21T13:06:22;11.88;63.95
52656;SHT85;35474;51.032;6.998;2024-02-21T13:08:49;12.09;63.81
52656;SHT85;35474;51.032;6.998;2024-02-21T13:11:17;12.51;62.77
52656;SHT85;35474;51.032;6.998;2024-02-21T13:13:43;11.85;63.90
52656;SHT85;35474;51.032;6.998;2024-02-21T13:16:10;11.65;64.18
52656;SHT85;35474;51.032;6.998;2024-02-21T13:18:37;11.68;63.97
52656;SHT85;35474;51.032;6.998;2024-02-21T13:21:09;11.89;63.24
52656;SHT85;35474;51.032;6.998;2024-02-21T13:23:35;11.74;63.79
52656;SHT85;35474;51.032;6.998;2024-02-21T13:26:02;11.69;63.43
52656;SHT85;35474;51.032;6.998;2024-02-21T13:28:28;11.49;63.30
52656;SHT85;35474;51.032;6.998;2024-02-21T13:30:55;11.65;63.25
52656;SHT85;35474;51.032;6.998;2024-02-21T13:33:21;11.58;63.18
52656;SHT85;35474;51.032;6.998;2024-02-21T13:35:48;11.58;63.68
52656;SHT85;35474;51.032;6.998;2024-02-21T13:38:15;11.78;63.21
52656;SHT85;35474;51.032;6.998;2024-02-21T13:40:42;11.74;62.98
52656;SHT85;35474;51.032;6.998;2024-02-21T13:43:08;11.83;62.80
52656;SHT85;35474;51.032;6.998;2024-02-21T13:45:37;11.89;63.29
52656;SHT85;35474;51.032;6.998;2024-02-21T13:48:04;11.79;63.22
52656;SHT85;35474;51.032;6.998;2024-02-21T13:50:32;11.74;63.19
52656;SHT85;35474;51.032;6.998;2024-02-21T13:53:08;11.61;63.20
52656;SHT85;35474;51.032;6.998;2024-02-21T13:55:35;11.68;63.49
52656;SHT85;35474;51.032;6.998;2024-02-21T13:58:03;11.68;63.36
52656;SHT85;35474;51.032;6.998;2024-02-21T14:00:29;11.58;63.48
52656;SHT85;35474;51.032;6.998;2024-02-21T14:02:56;11.58;63.42
52656;SHT85;35474;51.032;6.998;2024-02-21T14:05:24;11.62;63.74
52656;SHT85;35474;51.032;6.998;2024-02-21T14:07:51;11.66;63.33
52656;SHT85;35474;51.032;6.998;2024-02-21T14:10:22;11.65;63.49
52656;SHT85;35474;51.032;6.998;2024-02-21T14:12:48;11.57;63.51
52656;SHT85;35474;51.032;6.998;2024-02-21T14:15:15;11.52;63.70
52656;SHT85;35474;51.032;6.998;2024-02-21T14:17:45;11.59;63.44
52656;SHT85;35474;51.032;6.998;2024-02-21T14:20:12;11.52;63.14
52656;SHT85;35474;51.032;6.998;2024-02-21T14:22:43;11.57;63.36
52656;SHT85;35474;51.032;6.998;2024-02-21T14:25:10;11.58;63.32
52656;SHT85;35474;51.032;6.998;2024-02-21T14:27:36;11.61;63.47
52656;SHT85;35474;51.032;6.998;2024-02-21T14:30:03;11.62;64.15
52656;SHT85;35474;51.032;6.998;2024-02-21T14:32:30;11.48;64.73
52656;SHT85;35474;51.032;6.998;2024-02-21T14:34:57;11.52;64.73
52656;SHT85;35474;51.032;6.998;2024-02-21T14:37:28;11.51;64.73
52656;SHT85;35474;51.032;6.998;2024-02-21T14:39:55;11.55;65.07
52656;SHT85;35474;51.032;6.998;2024-02-21T14:42:21;11.52;65.36
52656;SHT85;35474;51.032;6.998;2024-02-21T14:44:48;11.54;65.26
52656;SHT85;35474;51.032;6.998;2024-02-21T14:47:14;11.55;65.18
52656;SHT85;35474;51.032;6.998;2024-02-21T14:49:41;11.57;65.20
52656;SHT85;35474;51.032;6.998;2024-02-21T14:52:07;11.55;65.29
52656;SHT85;35474;51.032;6.998;2024-02-21T14:54:37;11.59;65.46
52656;SHT85;35474;51.032;6.998;2024-02-21T14:57:04;11.52;65.56
52656;SHT85;35474;51.032;6.998;2024-02-21T14:59:31;11.51;65.37
52656;SHT85;35474;51.032;6.998;2024-02-21T15:02:00;11.49;65.59
52656;SHT85;35474;51.032;6.998;2024-02-21T15:04:27;11.55;65.28
52656;SHT85;35474;51.032;6.998;2024-02-21T15:06:54;11.57;65.39
52656;SHT85;35474;51.032;6.998;2024-02-21T15:09:20;11.57;65.53
52656;SHT85;35474;51.032;6.998;2024-02-21T15:11:47;11.54;65.45
52656;SHT85;35474;51.032;6.998;2024-02-21T15:14:13;11.57;64.68
52656;SHT85;35474;51.032;6.998;2024-02-21T15:16:40;11.54;64.53
52656;SHT85;35474;51.032;6.998;2024-02-21T15:19:07;11.51;64.32
52656;SHT85;35474;51.032;6.998;2024-02-21T15:21:34;11.51;64.32
52656;SHT85;35474;51.032;6.998;2024-02-21T15:24:01;11.52;63.98
52656;SHT85;35474;51.032;6.998;2024-02-21T15:26:29;11.54;64.46
52656;SHT85;35474;51.032;6.998;2024-02-21T15:28:56;11.45;64.56
52656;SHT85;35474;51.032;6.998;2024-02-21T15:31:23;11.49;64.41
52656;SHT85;35474;51.032;6.998;2024-02-21T15:33:53;11.51;64.45
52656;SHT85;35474;51.032;6.998;2024-02-21T15:36:20;11.49;64.74
52656;SHT85;35474;51.032;6.998;2024-02-21T15:38:47;11.48;64.46
52656;SHT85;35474;51.032;6.998;2024-02-21T15:41:13;11.47;63.99
52656;SHT85;35474;51.032;6.998;2024-02-21T15:43:40;11.49;64.21
52656;SHT85;35474;51.032;6.998;2024-02-21T15:46:12;11.49;63.45
52656;SHT85;35474;51.032;6.998;2024-02-21T15:48:39;11.51;63.22
52656;SHT85;35474;51.032;6.998;2024-02-21T15:51:06;11.45;63.48
52656;SHT85;35474;51.032;6.998;2024-02-21T15:53:32;11.48;63.49